Time;durP1;ratioP1;P1;durP2;ratioP2;P2;SDS_P1;SDS_P2;PMS_P1;PMS_P2;Temp;Humidity;BMP_temperature;BMP_pressure;BME280_temperature;BME280_humidity;BME280_pressure;Samples;Min_cycle;Max_cycle;Signal;HPM_P1;HPM_P2
2023/12/08 00:01:20;;;;;;;5.53;5.00;;;8.10;82.70;;;;;;5094850;28;20416;-57
2023/12/08 00:03:45;;;;;;;5.73;5.13;;;8.10;80.60;;;;;;5104989;28;20187;-58
2023/12/08 00:06:11;;;;;;;4.60;4.20;;;8.00;79.70;;;;;;5112623;28;20436;-58
2023/12/08 00:08:40;;;;;;;5.13;4.73;;;8.00;80.90;;;;;;5099232;27;20177;-58
2023/12/08 00:11:06;;;;;;;4.60;4.20;;;7.90;79.30;;;;;;5114018;28;20188;-59
2023/12/08 00:13:33;;;;;;;4.33;3.93;;;7.80;79.70;;;;;;5113476;28;20425;-58
2023/12/08 00:15:58;;;;;;;4.70;4.17;;;7.70;81.00;;;;;;5113595;28;20461;-59
2023/12/08 00:18:24;;;;;;;6.20;4.90;;;7.70;80.90;;;;;;5114896;28;20416;-59
2023/12/08 00:20:50;;;;;;;5.30;4.70;;;7.60;80.90;;;;;;5113733;28;20309;-58
2023/12/08 00:23:16;;;;;;;4.90;4.50;;;7.30;79.70;;;;;;5112979;28;20765;-59
2023/12/08 00:25:41;;;;;;;4.50;4.20;;;7.10;81.10;;;;;;5115189;28;20649;-59
2023/12/08 00:28:08;;;;;;;6.17;4.70;;;7.20;82.00;;;;;;5112969;28;20183;-59
2023/12/08 00:30:35;;;;;;;4.83;4.43;;;7.30;82.40;;;;;;5115290;28;20168;-58
2023/12/08 00:33:02;;;;;;;5.10;4.70;;;7.40;82.10;;;;;;5113636;28;20429;-59
2023/12/08 00:35:28;;;;;;;5.67;5.07;;;7.40;81.10;;;;;;5113325;28;20417;-58
2023/12/08 00:37:54;;;;;;;7.00;6.00;;;7.30;82.10;;;;;;5113364;28;20421;-59
2023/12/08 00:40:20;;;;;;;7.17;4.97;;;7.40;81.50;;;;;;5092220;28;20420;-58
2023/12/08 00:42:47;;;;;;;5.13;4.73;;;7.40;81.20;;;;;;5096663;28;20578;-59
2023/12/08 00:45:13;;;;;;;5.30;4.70;;;7.20;79.50;;;;;;5093919;28;20453;-58
2023/12/08 00:47:39;;;;;;;4.40;4.10;;;7.00;81.80;;;;;;5113811;28;20895;-58
2023/12/08 00:50:07;;;;;;;5.10;4.60;;;7.00;82.30;;;;;;5112701;28;20449;-59
2023/12/08 00:52:33;;;;;;;5.20;4.70;;;7.00;82.40;;;;;;5112945;28;20193;-58
2023/12/08 00:54:59;;;;;;;5.23;4.47;;;7.20;82.20;;;;;;5112868;28;20410;-58
2023/12/08 00:57:24;;;;;;;5.63;4.60;;;7.10;81.20;;;;;;5113752;28;20479;-58
2023/12/08 00:59:50;;;;;;;5.20;4.80;;;7.00;81.40;;;;;;5092088;28;20616;-58
2023/12/08 01:02:16;;;;;;;5.47;4.97;;;6.90;83.60;;;;;;5084536;28;20428;-58
2023/12/08 01:04:42;;;;;;;4.73;4.33;;;7.00;82.80;;;;;;5114654;28;20627;-58
2023/12/08 01:07:09;;;;;;;5.43;4.70;;;7.00;82.60;;;;;;5110488;28;20232;-59
2023/12/08 01:09:35;;;;;;;4.97;4.57;;;7.10;82.80;;;;;;5111376;28;20186;-58
2023/12/08 01:12:01;;;;;;;5.83;4.97;;;7.40;84.70;;;;;;5112776;28;20422;-58
2023/12/08 01:14:27;;;;;;;5.03;4.50;;;7.30;82.40;;;;;;5113245;28;20789;-58
2023/12/08 01:16:52;;;;;;;6.10;5.23;;;7.40;81.70;;;;;;5112544;28;20215;-58
2023/12/08 01:19:18;;;;;;;4.97;4.50;;;7.60;82.70;;;;;;5111854;28;20176;-60
2023/12/08 01:21:44;;;;;;;7.07;5.33;;;7.30;81.30;;;;;;5114245;28;20172;-60
2023/12/08 01:24:10;;;;;;;6.20;5.70;;;7.30;82.60;;;;;;5110561;28;20504;-60
2023/12/08 01:26:35;;;;;;;6.73;5.90;;;7.30;82.60;;;;;;5099471;28;20544;-58
2023/12/08 01:29:01;;;;;;;6.67;6.07;;;7.20;84.30;;;;;;5111060;28;20168;-58
2023/12/08 01:31:27;;;;;;;6.70;6.10;;;7.30;84.40;;;;;;5103945;28;20238;-58
2023/12/08 01:33:53;;;;;;;5.70;5.10;;;7.20;84.20;;;;;;5112411;28;20188;-58
2023/12/08 01:36:18;;;;;;;6.80;6.20;;;7.30;84.60;;;;;;5111956;28;20279;-58
2023/12/08 01:38:45;;;;;;;7.00;5.97;;;7.10;84.20;;;;;;5109469;28;20722;-58
2023/12/08 01:41:14;;;;;;;6.67;6.03;;;7.40;85.60;;;;;;5098782;28;20269;-58
2023/12/08 01:43:41;;;;;;;7.70;6.80;;;6.80;84.50;;;;;;5113809;28;20409;-58
2023/12/08 01:46:09;;;;;;;6.60;6.00;;;7.00;85.50;;;;;;5111164;28;20428;-61
2023/12/08 01:48:35;;;;;;;6.17;5.57;;;7.20;86.00;;;;;;5111889;28;20426;-59
2023/12/08 01:51:03;;;;;;;7.17;6.47;;;7.30;85.70;;;;;;5113785;28;20496;-58
2023/12/08 01:53:30;;;;;;;6.50;5.80;;;7.30;86.50;;;;;;5082142;28;20189;-59
2023/12/08 01:55:56;;;;;;;5.90;5.40;;;7.40;85.90;;;;;;5087811;28;20795;-58
2023/12/08 01:58:23;;;;;;;6.97;6.30;;;7.50;85.30;;;;;;5110965;28;20509;-58
2023/12/08 02:00:49;;;;;;;7.00;6.30;;;7.40;84.50;;;;;;5113574;28;20413;-58
2023/12/08 02:03:16;;;;;;;6.37;5.70;;;7.20;83.30;;;;;;5110006;28;20444;-58
2023/12/08 02:05:48;;;;;;;6.20;5.60;;;7.10;84.70;;;;;;5110754;28;20419;-58
2023/12/08 02:08:15;;;;;;;7.10;5.90;;;6.90;84.40;;;;;;5112925;28;20401;-58
2023/12/08 02:10:41;;;;;;;6.80;5.97;;;6.90;85.60;;;;;;5111539;28;20458;-58
2023/12/08 02:13:07;;;;;;;6.20;5.60;;;6.80;86.00;;;;;;5111600;28;20456;-59
2023/12/08 02:15:32;;;;;;;6.70;6.10;;;6.80;86.80;;;;;;5112708;28;20863;-58
2023/12/08 02:17:58;;;;;;;7.20;6.30;;;6.80;88.50;;;;;;5095626;28;20533;-58
2023/12/08 02:20:24;;;;;;;7.00;6.30;;;7.00;87.50;;;;;;5098199;28;20449;-58
2023/12/08 02:22:50;;;;;;;6.93;6.10;;;7.00;86.60;;;;;;5111220;28;20929;-58
2023/12/08 02:25:15;;;;;;;6.53;5.77;;;7.10;86.60;;;;;;5112725;28;20228;-59
2023/12/08 02:27:41;;;;;;;6.97;6.30;;;7.00;86.80;;;;;;5109973;28;20193;-59
2023/12/08 02:30:08;;;;;;;7.97;7.10;;;6.80;86.50;;;;;;5111040;28;20186;-59
2023/12/08 02:33:06;;;;;;;7.00;6.07;;;6.80;88.60;;;;;;5110972;28;20824;-59
2023/12/08 02:35:37;;;;;;;7.53;6.73;;;7.00;90.10;;;;;;5112500;28;20425;-59
2023/12/08 02:38:06;;;;;;;7.23;6.50;;;7.10;88.20;;;;;;5109013;28;20422;-59
2023/12/08 02:40:31;;;;;;;6.50;5.90;;;7.20;88.10;;;;;;5090470;28;20839;-59
2023/12/08 02:42:57;;;;;;;7.67;6.23;;;7.10;87.20;;;;;;5113021;28;20425;-59
2023/12/08 02:45:23;;;;;;;7.37;6.60;;;7.40;86.90;;;;;;5100823;28;20418;-60
2023/12/08 02:47:49;;;;;;;7.30;6.47;;;7.10;85.00;;;;;;5082021;28;20189;-59
2023/12/08 02:50:14;;;;;;;7.80;7.00;;;7.20;88.40;;;;;;5071831;28;20637;-59
2023/12/08 02:52:40;;;;;;;7.90;7.10;;;7.10;86.80;;;;;;5104530;28;20521;-59
2023/12/08 02:55:06;;;;;;;8.40;7.07;;;6.90;86.50;;;;;;5094907;28;20630;-59
2023/12/08 02:57:32;;;;;;;7.60;6.90;;;7.00;86.90;;;;;;5110522;28;20205;-59
2023/12/08 02:59:58;;;;;;;8.43;7.07;;;6.60;87.80;;;;;;5112712;28;20384;-59
2023/12/08 03:02:23;;;;;;;8.40;7.23;;;6.70;88.90;;;;;;5110426;28;20642;-59
2023/12/08 03:04:49;;;;;;;7.70;6.97;;;6.70;88.80;;;;;;5111149;28;20176;-59
2023/12/08 03:07:15;;;;;;;8.80;6.80;;;6.50;89.70;;;;;;5109055;28;20254;-60
2023/12/08 03:09:41;;;;;;;7.40;6.67;;;6.60;90.10;;;;;;5089743;28;20561;-59
2023/12/08 03:12:06;;;;;;;8.90;7.60;;;6.60;90.00;;;;;;5102867;28;20179;-59
2023/12/08 03:14:32;;;;;;;8.10;6.80;;;6.40;90.60;;;;;;5110124;28;20298;-59
2023/12/08 03:16:58;;;;;;;8.73;7.20;;;6.50;90.50;;;;;;5112501;28;20283;-59
2023/12/08 03:19:23;;;;;;;9.53;7.33;;;6.70;90.70;;;;;;5110288;28;20220;-59
2023/12/08 03:21:50;;;;;;;7.90;7.10;;;6.60;90.10;;;;;;5092522;28;20191;-57
2023/12/08 03:24:16;;;;;;;9.87;7.80;;;6.20;90.80;;;;;;5110688;28;20235;-58
2023/12/08 03:26:42;;;;;;;9.13;7.40;;;6.20;91.60;;;;;;5092382;28;20780;-58
2023/12/08 03:29:08;;;;;;;8.70;7.17;;;6.20;91.30;;;;;;5106397;28;20217;-58
2023/12/08 03:31:34;;;;;;;9.70;8.70;;;6.20;91.80;;;;;;5114449;28;20431;-58
2023/12/08 03:34:00;;;;;;;9.77;7.60;;;6.10;91.80;;;;;;5114610;28;20182;-58
2023/12/08 03:36:25;;;;;;;9.70;7.93;;;6.20;92.30;;;;;;5090366;28;20194;-58
2023/12/08 03:38:51;;;;;;;10.50;7.80;;;6.20;92.20;;;;;;5116275;28;20181;-58
2023/12/08 03:41:17;;;;;;;9.60;8.23;;;6.30;92.30;;;;;;5113464;28;20450;-57
2023/12/08 03:43:43;;;;;;;9.23;7.93;;;6.50;92.00;;;;;;5114320;28;20210;-60
2023/12/08 03:46:09;;;;;;;9.23;7.97;;;6.70;92.00;;;;;;5116122;28;20183;-57
2023/12/08 03:48:36;;;;;;;10.10;9.00;;;6.80;93.20;;;;;;5100158;28;20431;-58
2023/12/08 03:51:02;;;;;;;9.23;8.13;;;6.60;91.50;;;;;;5113295;28;20230;-58
2023/12/08 03:53:28;;;;;;;9.93;8.67;;;6.20;91.90;;;;;;5115420;28;20448;-58
2023/12/08 03:55:54;;;;;;;10.27;7.60;;;6.20;92.40;;;;;;5114353;28;20511;-58
2023/12/08 03:58:19;;;;;;;9.43;8.27;;;6.20;92.60;;;;;;5108308;28;20260;-58
2023/12/08 04:00:45;;;;;;;9.20;8.17;;;6.20;92.90;;;;;;5095492;28;20168;-58
2023/12/08 04:03:11;;;;;;;10.13;8.13;;;6.40;93.40;;;;;;5098416;28;20194;-58
2023/12/08 04:05:36;;;;;;;8.97;8.00;;;6.50;93.50;;;;;;5099105;28;20185;-59
2023/12/08 04:08:05;;;;;;;9.07;8.17;;;6.50;93.70;;;;;;5115763;28;20615;-59
2023/12/08 04:10:31;;;;;;;11.00;8.20;;;6.70;93.80;;;;;;5113633;28;20203;-59
2023/12/08 04:12:57;;;;;;;9.67;7.67;;;6.40;93.60;;;;;;5113886;28;20863;-59
2023/12/08 04:15:23;;;;;;;8.77;7.73;;;6.10;94.50;;;;;;5112950;28;20539;-59
2023/12/08 04:17:49;;;;;;;8.63;7.80;;;6.30;96.40;;;;;;5097545;28;20438;-59
2023/12/08 04:20:18;;;;;;;9.17;8.00;;;6.10;96.60;;;;;;5113708;28;20937;-60
2023/12/08 04:22:44;;;;;;;8.77;7.97;;;6.50;97.00;;;;;;5115114;28;20910;-59
2023/12/08 04:25:14;;;;;;;10.03;8.00;;;6.40;96.50;;;;;;5113597;28;20430;-59
2023/12/08 04:27:40;;;;;;;9.53;8.10;;;6.40;97.10;;;;;;5110236;28;20279;-59
2023/12/08 04:30:06;;;;;;;9.53;8.37;;;6.20;97.10;;;;;;5110737;28;20490;-59
2023/12/08 04:32:32;;;;;;;8.73;7.07;;;6.20;97.70;;;;;;5114608;28;20171;-59
2023/12/08 04:34:58;;;;;;;9.43;8.13;;;6.30;98.00;;;;;;5113365;28;20427;-59
2023/12/08 04:37:24;;;;;;;10.30;8.73;;;6.20;98.00;;;;;;5112314;28;20865;-59
2023/12/08 04:39:50;;;;;;;8.87;7.77;;;6.30;98.20;;;;;;5115220;28;20453;-60
2023/12/08 04:42:16;;;;;;;10.00;8.00;;;6.20;98.80;;;;;;5111994;28;20261;-60
2023/12/08 04:44:42;;;;;;;9.43;8.50;;;6.40;98.80;;;;;;5112949;28;20185;-59
2023/12/08 04:47:09;;;;;;;10.53;8.83;;;6.40;99.50;;;;;;5101917;28;20484;-59
2023/12/08 04:49:35;;;;;;;10.40;9.30;;;6.30;99.80;;;;;;5097440;28;20554;-59
2023/12/08 04:52:00;;;;;;;10.47;8.07;;;6.30;99.90;;;;;;5112056;28;20873;-60
2023/12/08 04:54:26;;;;;;;9.20;7.97;;;6.60;99.90;;;;;;5104475;28;20179;-59
2023/12/08 04:56:52;;;;;;;10.57;9.20;;;6.40;99.90;;;;;;5112189;28;20206;-59
2023/12/08 04:59:18;;;;;;;10.10;8.37;;;6.40;99.90;;;;;;5112456;28;20418;-63
2023/12/08 05:01:48;;;;;;;9.70;8.70;;;6.40;99.90;;;;;;5112736;28;20183;-59
2023/12/08 05:04:14;;;;;;;11.80;8.70;;;6.30;99.90;;;;;;5114712;28;20492;-59
2023/12/08 05:06:40;;;;;;;9.80;8.80;;;6.30;99.90;;;;;;5111968;28;20853;-59
2023/12/08 05:09:06;;;;;;;8.80;7.90;;;6.50;99.90;;;;;;5112978;28;20193;-59
2023/12/08 05:11:31;;;;;;;9.37;8.37;;;6.30;99.90;;;;;;5094295;28;20606;-59
2023/12/08 05:13:57;;;;;;;8.83;7.80;;;6.40;99.90;;;;;;5103076;28;20435;-60
2023/12/08 05:16:23;;;;;;;8.90;8.10;;;6.20;99.90;;;;;;5089422;28;20718;-59
2023/12/08 05:18:48;;;;;;;12.40;9.87;;;6.30;99.90;;;;;;5092227;28;20190;-60
2023/12/08 05:21:14;;;;;;;12.20;9.70;;;6.10;99.90;;;;;;5086961;28;20202;-59
2023/12/08 05:23:40;;;;;;;8.60;7.70;;;6.40;99.90;;;;;;5079441;28;20214;-60
2023/12/08 05:26:07;;;;;;;9.77;8.10;;;6.20;99.90;;;;;;5073564;28;20197;-59
2023/12/08 05:28:32;;;;;;;10.00;8.47;;;5.70;99.90;;;;;;5083639;28;20634;-58
2023/12/08 05:30:58;;;;;;;8.73;7.67;;;6.20;99.90;;;;;;5084046;28;20428;-59
2023/12/08 05:33:24;;;;;;;10.97;9.10;;;6.40;99.90;;;;;;5073095;28;20163;-59
2023/12/08 05:35:49;;;;;;;9.10;7.97;;;6.60;99.90;;;;;;5073554;28;20180;-59
2023/12/08 05:38:15;;;;;;;10.00;7.90;;;6.60;99.90;;;;;;5073730;28;20179;-59
2023/12/08 05:40:41;;;;;;;10.27;8.10;;;6.70;99.90;;;;;;5084796;28;20702;-59
2023/12/08 05:43:07;;;;;;;10.67;9.57;;;6.70;99.90;;;;;;5077048;28;20424;-59
2023/12/08 05:45:33;;;;;;;9.57;8.30;;;6.60;99.90;;;;;;5072368;28;20545;-59
2023/12/08 05:47:58;;;;;;;14.00;10.40;;;6.50;99.90;;;;;;5082569;28;20264;-59
2023/12/08 05:50:24;;;;;;;11.20;9.13;;;6.50;99.90;;;;;;5091634;28;20609;-60
2023/12/08 05:52:50;;;;;;;10.40;9.20;;;6.60;99.90;;;;;;5074743;28;20176;-60
2023/12/08 05:55:15;;;;;;;11.73;8.33;;;6.40;99.90;;;;;;5110208;27;20696;-59
2023/12/08 05:57:41;;;;;;;10.80;9.80;;;6.30;99.90;;;;;;5090345;28;20491;-58
2023/12/08 06:00:10;;;;;;;10.63;9.53;;;6.30;99.90;;;;;;5090572;28;20189;-59
2023/12/08 06:02:36;;;;;;;12.87;9.43;;;6.20;99.90;;;;;;5089229;28;20180;-58
2023/12/08 06:05:02;;;;;;;9.50;8.27;;;6.30;99.90;;;;;;5088535;28;20481;-59
2023/12/08 06:07:28;;;;;;;11.03;9.90;;;6.50;99.90;;;;;;5080596;28;20487;-58
2023/12/08 06:09:53;;;;;;;14.30;10.30;;;6.40;99.90;;;;;;5090977;28;20422;-61
2023/12/08 06:12:19;;;;;;;10.90;8.20;;;6.50;99.90;;;;;;5085981;28;20179;-59
2023/12/08 06:14:45;;;;;;;13.47;8.83;;;6.70;99.90;;;;;;5072117;28;20441;-59
2023/12/08 06:17:10;;;;;;;11.80;9.83;;;6.10;99.90;;;;;;5109702;28;20297;-59
2023/12/08 06:19:36;;;;;;;12.87;9.90;;;6.50;99.90;;;;;;5098551;28;20182;-65
2023/12/08 06:22:02;;;;;;;10.23;9.20;;;6.40;99.90;;;;;;5113037;28;20224;-60
2023/12/08 06:24:28;;;;;;;10.60;8.47;;;6.70;99.90;;;;;;5109930;28;20208;-60
2023/12/08 06:26:53;;;;;;;10.43;8.63;;;6.70;99.90;;;;;;5100814;28;20474;-60
2023/12/08 06:29:19;;;;;;;10.77;9.67;;;6.80;99.90;;;;;;5093023;28;20662;-59
2023/12/08 06:31:45;;;;;;;11.13;9.43;;;7.00;99.90;;;;;;5111610;28;20300;-59
2023/12/08 06:34:11;;;;;;;13.67;9.10;;;6.90;99.90;;;;;;5109408;28;20424;-59
2023/12/08 06:36:44;;;;;;;10.83;9.43;;;6.90;99.90;;;;;;5082222;28;20447;-60
2023/12/08 06:39:17;;;;;;;11.33;9.67;;;6.90;99.90;;;;;;5111721;28;20410;-60
2023/12/08 06:41:43;;;;;;;11.50;9.57;;;7.00;99.90;;;;;;5109956;28;20535;-60
2023/12/08 06:44:09;;;;;;;11.10;8.67;;;7.00;99.90;;;;;;5084502;28;20926;-60
2023/12/08 06:46:35;;;;;;;12.70;10.43;;;7.00;99.90;;;;;;5090686;28;20459;-60
2023/12/08 06:49:01;;;;;;;13.40;10.23;;;7.00;99.90;;;;;;5111130;28;20433;-59
2023/12/08 06:51:28;;;;;;;11.13;9.40;;;6.90;99.90;;;;;;5103760;28;20182;-59
2023/12/08 06:53:53;;;;;;;13.87;10.13;;;7.00;99.90;;;;;;5094155;28;20270;-59
2023/12/08 06:56:21;;;;;;;12.43;10.13;;;6.70;99.90;;;;;;5072909;28;20570;-58
2023/12/08 06:58:48;;;;;;;15.93;10.97;;;6.80;99.90;;;;;;5088320;28;20179;-58
2023/12/08 07:01:13;;;;;;;11.43;9.87;;;6.80;99.90;;;;;;5082078;28;20430;-59
2023/12/08 07:03:39;;;;;;;12.77;10.80;;;6.90;99.90;;;;;;5072682;28;20426;-60
2023/12/08 07:06:05;;;;;;;12.77;10.23;;;6.70;99.90;;;;;;5114727;28;20621;-58
2023/12/08 07:08:31;;;;;;;14.60;10.10;;;6.60;99.90;;;;;;5091884;28;20231;-58
2023/12/08 07:10:56;;;;;;;13.13;10.20;;;6.80;99.90;;;;;;5089726;28;20505;-58
2023/12/08 07:13:22;;;;;;;11.77;10.40;;;6.60;99.90;;;;;;5095010;28;20274;-55
2023/12/08 07:15:48;;;;;;;13.77;10.43;;;6.70;99.90;;;;;;5109270;28;20642;-57
2023/12/08 07:18:14;;;;;;;12.87;10.20;;;7.00;99.90;;;;;;5094675;28;20429;-58
2023/12/08 07:20:40;;;;;;;14.60;13.13;;;6.80;99.90;;;;;;5112887;28;20187;-60
2023/12/08 07:23:06;;;;;;;13.30;10.27;;;6.90;99.90;;;;;;5113581;28;20172;-60
2023/12/08 07:25:32;;;;;;;16.83;13.17;;;7.00;99.90;;;;;;5076417;28;20427;-58
2023/12/08 07:27:58;;;;;;;11.00;9.90;;;6.80;99.90;;;;;;5089314;28;20661;-58
2023/12/08 07:30:23;;;;;;;11.97;10.53;;;7.20;99.90;;;;;;5097888;28;20512;-58
2023/12/08 07:32:50;;;;;;;12.23;10.93;;;7.10;99.90;;;;;;5110448;28;20187;-58
2023/12/08 07:35:16;;;;;;;12.90;10.60;;;7.20;99.90;;;;;;5108757;28;20172;-59
2023/12/08 07:37:42;;;;;;;14.67;10.53;;;7.20;99.90;;;;;;5097404;28;20525;-58
2023/12/08 07:40:09;;;;;;;15.20;11.00;;;7.30;99.90;;;;;;5097539;28;20195;-58
2023/12/08 07:42:36;;;;;;;14.60;13.10;;;7.40;99.90;;;;;;5101932;28;20182;-58
2023/12/08 07:45:05;;;;;;;14.60;11.13;;;7.50;99.90;;;;;;5091933;28;20517;-56
2023/12/08 07:47:32;;;;;;;12.40;11.10;;;7.50;99.90;;;;;;5102619;28;20512;-59
2023/12/08 07:49:58;;;;;;;15.37;11.27;;;7.50;99.90;;;;;;5112247;28;20554;-58
2023/12/08 07:52:27;;;;;;;14.93;11.13;;;7.50;99.90;;;;;;5076348;28;20427;-56
2023/12/08 07:54:54;;;;;;;14.83;11.50;;;7.60;99.90;;;;;;5103737;28;20448;-57
2023/12/08 07:57:19;;;;;;;12.10;10.40;;;7.60;99.90;;;;;;5090891;28;20454;-59
2023/12/08 07:59:46;;;;;;;13.67;12.30;;;7.80;99.90;;;;;;5102438;28;20425;-59
2023/12/08 08:02:12;;;;;;;12.00;10.60;;;8.40;99.90;;;;;;5093797;28;20182;-59
2023/12/08 08:04:38;;;;;;;12.80;10.90;;;9.10;99.90;;;;;;5088314;28;20424;-60
2023/12/08 08:07:03;;;;;;;12.10;10.80;;;9.70;99.90;;;;;;5093317;28;20218;-60
2023/12/08 08:09:29;;;;;;;11.93;9.87;;;10.30;99.90;;;;;;5090942;28;20222;-66
2023/12/08 08:11:55;;;;;;;13.50;11.00;;;10.70;99.90;;;;;;5095445;28;20233;-59
2023/12/08 08:14:21;;;;;;;14.50;11.60;;;11.10;99.90;;;;;;5093836;28;20464;-63
2023/12/08 08:16:47;;;;;;;13.53;11.77;;;11.40;99.90;;;;;;5090585;28;20239;-60
2023/12/08 08:19:13;;;;;;;11.07;10.07;;;11.80;99.90;;;;;;5091432;28;20169;-61
2023/12/08 08:21:39;;;;;;;11.30;9.73;;;12.00;99.90;;;;;;5093694;28;20764;-60
2023/12/08 08:24:05;;;;;;;13.77;12.37;;;12.20;99.90;;;;;;5104580;28;20422;-60
2023/12/08 08:26:32;;;;;;;11.53;10.33;;;12.10;96.70;;;;;;5081338;28;20624;-62
2023/12/08 08:28:57;;;;;;;15.33;12.80;;;12.20;99.90;;;;;;5109805;28;20272;-59
2023/12/08 08:31:23;;;;;;;13.23;11.17;;;12.50;99.50;;;;;;5103078;28;20510;-62
2023/12/08 08:33:49;;;;;;;13.10;11.87;;;12.50;96.60;;;;;;5109651;28;20191;-60
2023/12/08 08:36:15;;;;;;;12.53;11.33;;;12.60;96.30;;;;;;5114181;28;20199;-61
2023/12/08 08:38:41;;;;;;;10.70;9.40;;;11.90;95.50;;;;;;5113686;28;20190;-60
2023/12/08 08:41:07;;;;;;;10.80;9.80;;;12.10;97.90;;;;;;5111243;28;20428;-60
2023/12/08 08:43:32;;;;;;;13.57;12.17;;;12.20;95.80;;;;;;5089928;28;20419;-63
2023/12/08 08:45:59;;;;;;;12.80;11.60;;;12.10;94.50;;;;;;5092551;28;20453;-60
2023/12/08 08:48:25;;;;;;;13.30;11.50;;;11.90;95.60;;;;;;5098578;28;20630;-60
2023/12/08 08:50:51;;;;;;;12.70;11.40;;;12.10;96.00;;;;;;5111308;28;20432;-60
2023/12/08 08:53:17;;;;;;;12.03;10.80;;;12.30;97.40;;;;;;5076459;28;20646;-61
2023/12/08 08:55:43;;;;;;;12.43;11.23;;;12.50;95.70;;;;;;5108863;27;20424;-61
2023/12/08 08:58:09;;;;;;;12.80;11.43;;;12.60;96.00;;;;;;5116905;27;20500;-61
2023/12/08 09:00:35;;;;;;;12.97;11.70;;;12.70;96.00;;;;;;5090537;28;20424;-62
2023/12/08 09:03:01;;;;;;;12.50;11.30;;;12.90;96.30;;;;;;5096310;28;20222;-56
2023/12/08 09:05:27;;;;;;;14.10;12.50;;;13.00;94.10;;;;;;5088028;28;20195;-56
2023/12/08 09:07:54;;;;;;;16.27;14.77;;;12.70;91.70;;;;;;5080961;28;20419;-57
2023/12/08 09:10:20;;;;;;;13.63;11.80;;;12.40;91.50;;;;;;5085354;28;20417;-56
2023/12/08 09:12:46;;;;;;;14.30;12.97;;;12.00;91.80;;;;;;5093454;28;20759;-57
2023/12/08 09:15:13;;;;;;;13.60;11.73;;;11.60;93.00;;;;;;5092345;28;20481;-53
2023/12/08 09:17:40;;;;;;;14.20;12.90;;;11.30;93.70;;;;;;5110687;28;20469;-56
2023/12/08 09:20:08;;;;;;;15.13;13.63;;;10.90;94.70;;;;;;5111569;28;20437;-55
2023/12/08 09:22:36;;;;;;;12.77;11.37;;;10.50;95.80;;;;;;5112714;28;20421;-62
2023/12/08 09:25:03;;;;;;;15.33;13.13;;;10.10;97.20;;;;;;5114190;28;20438;-55
2023/12/08 09:27:29;;;;;;;15.13;12.47;;;9.90;99.20;;;;;;5112594;28;20466;-56
2023/12/08 09:29:55;;;;;;;14.47;12.97;;;9.70;99.90;;;;;;5111026;28;20428;-55
2023/12/08 09:32:20;;;;;;;13.87;11.80;;;9.50;99.90;;;;;;5112168;28;20192;-56
2023/12/08 09:34:46;;;;;;;15.63;14.03;;;9.40;99.90;;;;;;5113705;28;20407;-57
2023/12/08 09:37:12;;;;;;;15.10;11.20;;;9.30;99.90;;;;;;5112029;28;20213;-54
2023/12/08 09:39:37;;;;;;;17.77;14.33;;;9.20;99.90;;;;;;5109836;28;20255;-56
2023/12/08 09:42:11;;;;;;;15.90;11.73;;;9.00;99.90;;;;;;5090393;28;20173;-55
2023/12/08 09:44:37;;;;;;;17.37;13.30;;;8.90;99.90;;;;;;5106237;28;20656;-55
2023/12/08 09:47:04;;;;;;;16.23;13.00;;;8.80;99.90;;;;;;5112206;28;20433;-56
2023/12/08 09:49:36;;;;;;;15.37;13.77;;;8.70;99.90;;;;;;5113743;28;20176;-56
2023/12/08 09:52:03;;;;;;;16.30;12.43;;;8.80;99.90;;;;;;5112927;28;20432;-55
2023/12/08 09:54:29;;;;;;;16.07;13.90;;;8.60;99.90;;;;;;5111074;28;21001;-55
2023/12/08 09:56:56;;;;;;;14.00;11.70;;;8.60;99.90;;;;;;5110822;28;20907;-55
2023/12/08 09:59:23;;;;;;;16.27;14.50;;;8.60;99.90;;;;;;5077147;28;20438;-55
2023/12/08 10:01:49;;;;;;;16.80;13.17;;;8.60;99.90;;;;;;5104662;28;20513;-54
2023/12/08 10:04:16;;;;;;;12.83;11.13;;;8.40;99.90;;;;;;5112434;28;20454;-58
2023/12/08 10:06:42;;;;;;;14.77;11.50;;;8.40;99.90;;;;;;5107029;28;20476;-55
2023/12/08 10:09:10;;;;;;;12.27;10.97;;;8.50;99.90;;;;;;5098553;28;20449;-55
2023/12/08 10:11:36;;;;;;;15.27;13.53;;;8.70;99.90;;;;;;5110725;28;20764;-56
2023/12/08 10:14:02;;;;;;;14.20;11.50;;;8.50;99.90;;;;;;5101026;28;20454;-55
2023/12/08 10:16:28;;;;;;;14.10;12.60;;;8.20;99.90;;;;;;5092810;28;20474;-56
2023/12/08 10:19:11;;;;;;;15.10;12.60;;;8.30;99.90;;;;;;5092058;28;20410;-56
2023/12/08 10:21:37;;;;;;;16.03;14.40;;;8.40;99.90;;;;;;5090609;28;20575;-60
2023/12/08 10:24:04;;;;;;;15.80;11.90;;;8.40;99.90;;;;;;5108211;28;20418;-54
2023/12/08 10:26:31;;;;;;;16.07;12.70;;;8.40;99.90;;;;;;5113131;28;20412;-54
2023/12/08 10:29:01;;;;;;;14.20;12.70;;;8.60;99.90;;;;;;5110316;28;20423;-53
2023/12/08 10:31:28;;;;;;;16.73;12.97;;;8.40;99.90;;;;;;5104318;28;20422;-53
2023/12/08 10:33:57;;;;;;;13.70;12.20;;;8.40;99.90;;;;;;5086409;28;20472;-57
2023/12/08 10:36:23;;;;;;;14.93;12.03;;;8.50;99.90;;;;;;5101221;28;20477;-55
2023/12/08 10:38:50;;;;;;;12.27;10.50;;;8.50;99.90;;;;;;5090852;28;20427;-53
2023/12/08 10:41:19;;;;;;;13.53;11.10;;;8.50;99.90;;;;;;5087087;28;20422;-55
2023/12/08 10:43:45;;;;;;;12.73;10.50;;;8.50;99.90;;;;;;5078462;28;20415;-58
2023/12/08 10:46:11;;;;;;;13.60;10.23;;;8.50;99.90;;;;;;5103219;28;20429;-58
2023/12/08 10:48:38;;;;;;;14.23;9.70;;;8.50;99.90;;;;;;5105411;28;20764;-56
2023/12/08 10:51:06;;;;;;;12.30;10.30;;;8.50;99.90;;;;;;5084729;28;20752;-62
2023/12/08 10:53:32;;;;;;;12.73;11.43;;;8.50;99.90;;;;;;5111994;28;20413;-58
2023/12/08 10:56:05;;;;;;;11.87;9.87;;;8.40;99.90;;;;;;5109266;28;20433;-58
2023/12/08 10:58:35;;;;;;;11.30;9.40;;;8.40;99.90;;;;;;5090568;28;20184;-59
2023/12/08 11:01:06;;;;;;;9.33;8.43;;;8.40;99.90;;;;;;5085213;28;20456;-61
2023/12/08 11:03:33;;;;;;;10.03;8.93;;;8.50;99.90;;;;;;5107607;28;20453;-59
2023/12/08 11:06:09;;;;;;;12.60;10.57;;;8.50;99.90;;;;;;5111010;28;20397;-60
2023/12/08 11:08:37;;;;;;;11.60;9.77;;;8.60;99.90;;;;;;5105638;28;20857;-60
2023/12/08 11:11:06;;;;;;;10.20;8.73;;;8.60;99.90;;;;;;5110980;28;20506;-60
2023/12/08 11:13:38;;;;;;;10.63;9.53;;;8.60;99.90;;;;;;5103339;28;20786;-58
2023/12/08 11:16:33;;;;;;;9.57;8.67;;;8.60;99.90;;;;;;5086681;28;20429;-58
2023/12/08 11:19:00;;;;;;;11.73;9.57;;;8.50;99.90;;;;;;5077956;28;20437;-58
2023/12/08 11:21:27;;;;;;;426.03;264.53;;;8.60;99.90;;;;;;5076005;28;20421;-58
2023/12/08 11:23:54;;;;;;;293.20;169.87;;;8.50;99.90;;;;;;5102692;28;20431;-58
2023/12/08 11:26:46;;;;;;;16.57;13.03;;;8.70;99.90;;;;;;5091622;28;20832;-58
2023/12/08 11:29:30;;;;;;;12.27;9.43;;;8.60;99.90;;;;;;5088804;28;20918;-59
2023/12/08 11:32:17;;;;;;;10.70;9.47;;;8.80;99.90;;;;;;5112036;28;20732;-58
2023/12/08 11:35:04;;;;;;;10.13;8.80;;;8.60;99.90;;;;;;5112049;28;20453;-59
2023/12/08 11:37:32;;;;;;;9.23;8.23;;;8.70;99.90;;;;;;5110982;28;20450;-58
2023/12/08 11:40:12;;;;;;;11.60;8.60;;;8.50;99.90;;;;;;5096576;28;20913;-58
2023/12/08 11:42:39;;;;;;;9.63;8.73;;;8.60;99.90;;;;;;5088607;28;20967;-58
2023/12/08 11:45:09;;;;;;;12.50;9.80;;;8.60;99.90;;;;;;5083220;28;20500;-58
2023/12/08 11:47:35;;;;;;;9.47;8.17;;;8.60;99.90;;;;;;5085092;28;20444;-58
2023/12/08 11:50:05;;;;;;;10.87;8.17;;;8.70;99.90;;;;;;5076994;28;20423;-58
2023/12/08 11:52:33;;;;;;;10.10;9.10;;;8.70;99.90;;;;;;5081856;28;20908;-58
2023/12/08 11:55:22;;;;;;;9.40;8.40;;;8.70;99.90;;;;;;5091814;28;20418;-60
2023/12/08 11:58:02;;;;;;;9.30;8.30;;;8.70;99.90;;;;;;5074835;28;20546;-58
2023/12/08 12:00:31;;;;;;;9.33;8.30;;;8.80;99.90;;;;;;5086529;28;20434;-60
2023/12/08 12:02:58;;;;;;;9.00;8.10;;;8.80;99.90;;;;;;5122389;27;20786;-58
2023/12/08 12:05:26;;;;;;;9.10;8.20;;;8.80;99.90;;;;;;5096452;28;20423;-57
2023/12/08 12:07:53;;;;;;;9.77;8.70;;;8.80;99.90;;;;;;5091263;28;20430;-59
2023/12/08 12:10:25;;;;;;;9.50;8.50;;;8.80;99.90;;;;;;5086579;28;20530;-60
2023/12/08 12:12:56;;;;;;;9.77;8.77;;;8.80;99.90;;;;;;5087747;28;20421;-62
2023/12/08 12:15:25;;;;;;;10.83;9.37;;;8.80;99.90;;;;;;5076005;28;20519;-56
2023/12/08 12:17:51;;;;;;;9.33;8.40;;;8.80;99.90;;;;;;5089191;28;20918;-56
2023/12/08 12:20:18;;;;;;;10.43;9.23;;;8.80;99.90;;;;;;5093304;28;20977;-54
2023/12/08 12:22:44;;;;;;;9.83;8.77;;;8.90;99.90;;;;;;5094729;28;20411;-56
2023/12/08 12:25:10;;;;;;;12.10;8.77;;;8.90;99.90;;;;;;5114183;28;20754;-55
2023/12/08 12:27:48;;;;;;;10.37;9.27;;;8.90;99.90;;;;;;5099914;28;20444;-56
2023/12/08 12:30:15;;;;;;;1005.73;601.20;;;8.90;99.90;;;;;;5083680;28;20427;-58
2023/12/08 12:32:41;;;;;;;51.70;33.67;;;8.80;99.90;;;;;;5104728;27;20733;-55
2023/12/08 12:35:08;;;;;;;11.63;10.20;;;8.80;99.90;;;;;;5075250;28;20511;-57
2023/12/08 12:37:34;;;;;;;10.63;9.20;;;8.90;99.90;;;;;;5093384;28;20490;-59
2023/12/08 12:40:00;;;;;;;10.40;9.30;;;8.90;99.90;;;;;;5085866;28;20453;-56
2023/12/08 12:42:26;;;;;;;9.67;8.13;;;8.90;99.90;;;;;;5092509;28;20915;-56
2023/12/08 12:44:52;;;;;;;12.90;10.60;;;8.80;99.90;;;;;;5096434;28;20189;-58